Nearby METAR Reports

 

KLEX - Lexington, Kentucky, USA
Distance from station: WNW 7mi, 11km
Updated: Tue, 16-Oct-2018 6:54am EDT
Clear
Clear
 Wind from NNW
Wind: NNW 6 mph , 9 km/h
Temperature: 43°F , 6°C
Wind Chill: 39°F , 4°C
Dew Point: 37°F , 3°C
Humidity: 81%
Barometer: 30.30 inHg , 1026.1 hPa
Clouds: Clear
Visibility: 10 miles , 16 km
2018/10/16 10:54 KLEX 161054Z 34005KT 10SM CLR 06/03 A3030 RMK AO2 SLP263 T00560033 $
KFFT - Frankfort, Kentucky, USA
Distance from station: WNW 26mi, 42km
Updated: Tue, 16-Oct-2018 7:53am EDT
Clear
Clear
 Wind from calm
Wind: Calm
Temperature: 43°F , 6°C
Dew Point: 39°F , 4°C
Humidity: 87%
Barometer: 30.29 inHg , 1025.7 hPa
Clouds: Clear
Visibility: 10 miles , 16 km
2018/10/16 11:53 KFFT 161153Z AUTO 00000KT 10SM CLR 06/04 A3029 RMK AO2 SLP257 70055 T005
 
KIOB - Mount Sterling, Kentucky, USA
Distance from station: E 27mi, 44km
Updated: Tue, 16-Oct-2018 7:35am EDT
Clear
Clear
 Wind from NE
Wind: NE 3 mph , 6 km/h
Temperature: 41°F , 5°C
Dew Point: 39°F , 4°C
Humidity: 93%
Barometer: 30.30 inHg , 1026.1 hPa
Clouds: Clear
Visibility: 10 miles , 16 km
2018/10/16 11:35 KIOB 161135Z AUTO 04003KT 10SM CLR 05/04 A3030 RMK AO2
KDVK - Danville, Kentucky, USA
Distance from station: SSW 33mi, 53km
Updated: Tue, 16-Oct-2018 7:30am EDT
Partly cloudy
Partly cloudy
 Wind from NNE
Wind: NNE 3 mph , 6 km/h
Temperature: 41°F , 5°C
Dew Point: 39°F , 4°C
Humidity: 93%
Barometer: 30.28 inHg , 1025.4 hPa
Clouds: Partly cloudy
Visibility: 10 miles , 16 km
Cloud details: Partly cloudy 1900 ft
2018/10/16 11:30 KDVK 161130Z AUTO 02003KT 10SM SCT019 05/04 A3028 RMK AO2